createdAt,value
2023-02-22T00:00:42.646Z,99.70
2023-02-22T00:03:15.350Z,99.70
2023-02-22T00:05:46.894Z,99.90
2023-02-22T00:08:15.671Z,99.90
2023-02-22T00:10:43.479Z,99.90
2023-02-22T00:13:14.181Z,99.90
2023-02-22T00:15:42.322Z,99.90
2023-02-22T00:18:13.754Z,99.90
2023-02-22T00:20:42.262Z,99.90
2023-02-22T00:23:14.679Z,99.90
2023-02-22T00:25:42.510Z,99.90
2023-02-22T00:28:10.182Z,99.90
2023-02-22T00:30:37.998Z,99.90
2023-02-22T00:33:06.324Z,99.90
2023-02-22T00:35:35.336Z,99.90
2023-02-22T00:38:04.216Z,99.90
2023-02-22T00:40:33.386Z,99.90
2023-02-22T00:43:02.699Z,99.90
2023-02-22T00:45:32.260Z,99.90
2023-02-22T00:48:00.557Z,99.90
2023-02-22T00:50:30.974Z,99.90
2023-02-22T00:53:01.404Z,99.90
2023-02-22T00:55:31.643Z,99.90
2023-02-22T00:58:01.841Z,99.90
2023-02-22T01:00:31.597Z,99.90
2023-02-22T01:02:59.661Z,99.90
2023-02-22T01:05:29.017Z,99.90
2023-02-22T01:07:58.638Z,99.90
2023-02-22T01:10:29.787Z,99.90
2023-02-22T01:12:58.514Z,99.90
2023-02-22T01:15:30.713Z,99.90
2023-02-22T01:17:59.842Z,99.90
2023-02-22T01:20:29.303Z,99.90
2023-02-22T01:22:58.560Z,99.90
2023-02-22T01:25:29.733Z,99.90
2023-02-22T01:27:58.680Z,99.90
2023-02-22T01:30:29.349Z,99.90
2023-02-22T01:32:57.924Z,99.90
2023-02-22T01:35:29.614Z,99.90
2023-02-22T01:37:58.512Z,99.90
2023-02-22T01:40:30.151Z,99.90
2023-02-22T01:42:59.968Z,99.90
2023-02-22T01:45:45.447Z,99.90
2023-02-22T01:48:16.975Z,99.90
2023-02-22T01:50:48.592Z,99.90
2023-02-22T01:53:19.115Z,99.90
2023-02-22T01:55:48.978Z,99.90
2023-02-22T01:58:19.522Z,99.90
2023-02-22T02:00:47.296Z,99.90
2023-02-22T02:03:19.324Z,99.90
2023-02-22T02:05:47.332Z,99.90
2023-02-22T02:08:23.762Z,99.90
2023-02-22T02:10:54.404Z,99.90
2023-02-22T02:13:22.235Z,99.90
2023-02-22T02:15:52.738Z,99.90
2023-02-22T02:18:20.546Z,99.90
2023-02-22T02:21:01.772Z,99.90
2023-02-22T02:24:09.802Z,99.90
2023-02-22T02:27:00.250Z,99.90
2023-02-22T02:30:05.946Z,99.90
2023-02-22T02:32:46.105Z,99.90
2023-02-22T02:35:21.324Z,99.90
2023-02-22T02:37:55.613Z,99.90
2023-02-22T02:40:31.280Z,99.90
2023-02-22T02:43:05.918Z,99.90
2023-02-22T02:45:39.596Z,99.90
2023-02-22T02:48:12.183Z,99.90
2023-02-22T02:50:45.010Z,99.90
2023-02-22T02:53:17.077Z,99.90
2023-02-22T02:55:45.073Z,99.90
2023-02-22T02:58:19.821Z,99.90
2023-02-22T03:00:48.377Z,99.90
2023-02-22T03:03:45.967Z,99.90
2023-02-22T03:06:41.542Z,99.90
2023-02-22T03:09:15.286Z,99.90
2023-02-22T03:11:52.813Z,99.90
2023-02-22T03:14:27.533Z,99.90
2023-02-22T03:17:03.367Z,99.90
2023-02-22T03:19:36.761Z,99.90
2023-02-22T03:22:11.539Z,99.90
2023-02-22T03:24:52.772Z,99.90
2023-02-22T03:27:28.883Z,99.90
2023-02-22T03:30:01.346Z,99.90
2023-02-22T03:32:34.191Z,99.90
2023-02-22T03:35:08.764Z,99.90
2023-02-22T03:37:41.565Z,99.90
2023-02-22T03:40:14.761Z,99.90
2023-02-22T03:42:47.981Z,99.90
2023-02-22T03:45:18.889Z,99.90
2023-02-22T03:47:51.242Z,99.90
2023-02-22T03:50:25.197Z,99.90
2023-02-22T03:52:54.270Z,99.90
2023-02-22T03:55:23.610Z,99.90
2023-02-22T03:57:55.448Z,99.90
2023-02-22T04:00:26.112Z,99.90
2023-02-22T04:02:53.941Z,99.90
2023-02-22T04:05:24.779Z,99.90
2023-02-22T04:07:53.012Z,99.90
2023-02-22T04:10:21.017Z,99.90
2023-02-22T04:12:49.114Z,99.90
2023-02-22T04:15:21.822Z,99.90
2023-02-22T04:17:49.670Z,99.90
2023-02-22T04:20:19.752Z,99.90
2023-02-22T04:22:48.876Z,99.90
2023-02-22T04:25:16.640Z,99.90
2023-02-22T04:27:44.337Z,99.90
2023-02-22T04:30:13.089Z,99.90
2023-02-22T04:32:40.934Z,99.90
2023-02-22T04:35:09.333Z,99.90
2023-02-22T04:37:37.309Z,99.90
2023-02-22T04:40:08.063Z,99.90
2023-02-22T04:42:35.964Z,99.90
2023-02-22T04:45:04.165Z,99.90
2023-02-22T04:47:31.933Z,99.90
2023-02-22T04:50:00.274Z,99.90
2023-02-22T04:52:28.766Z,99.90
2023-02-22T04:54:56.462Z,99.90
2023-02-22T04:57:25.577Z,99.90
2023-02-22T04:59:53.309Z,99.90
2023-02-22T05:02:21.234Z,99.90
2023-02-22T05:04:49.241Z,99.90
2023-02-22T05:07:17.645Z,99.90
2023-02-22T05:09:45.483Z,99.90
2023-02-22T05:12:13.528Z,99.90
2023-02-22T05:14:42.728Z,99.90
2023-02-22T05:17:10.479Z,99.90
2023-02-22T05:19:38.330Z,99.90
2023-02-22T05:22:06.310Z,99.90
2023-02-22T05:24:34.996Z,99.90
2023-02-22T05:27:02.749Z,99.90
2023-02-22T05:29:30.621Z,99.90
2023-02-22T05:31:59.793Z,99.90
2023-02-22T05:34:27.545Z,99.90
2023-02-22T05:36:55.329Z,99.90
2023-02-22T05:39:23.265Z,99.90
2023-02-22T05:41:51.318Z,99.90
2023-02-22T05:44:19.053Z,99.90
2023-02-22T05:46:46.813Z,99.90
2023-02-22T05:49:16.191Z,99.90
2023-02-22T05:51:43.931Z,99.90
2023-02-22T05:54:11.708Z,99.90
2023-02-22T05:56:39.469Z,99.90
2023-02-22T05:59:07.232Z,99.90
2023-02-22T06:01:35.130Z,99.90
2023-02-22T06:04:03.073Z,99.90
2023-02-22T06:06:32.190Z,99.90
2023-02-22T06:08:59.921Z,99.90
2023-02-22T06:11:27.626Z,99.90
2023-02-22T06:13:55.372Z,99.90
2023-02-22T06:16:23.686Z,99.90
2023-02-22T06:18:51.516Z,99.90
2023-02-22T06:21:19.392Z,99.90
2023-02-22T06:23:48.662Z,99.90
2023-02-22T06:26:17.427Z,99.90
2023-02-22T06:28:45.879Z,99.90
2023-02-22T06:31:13.844Z,99.90
2023-02-22T06:33:41.647Z,99.90
2023-02-22T06:36:10.525Z,99.90
2023-02-22T06:38:38.264Z,99.90
2023-02-22T06:41:07.523Z,99.90
2023-02-22T06:43:35.311Z,99.90
2023-02-22T06:46:03.162Z,99.90
2023-02-22T06:48:30.874Z,99.90
2023-02-22T06:50:58.614Z,99.90
2023-02-22T06:53:26.283Z,99.90
2023-02-22T06:55:54.621Z,99.90
2023-02-22T06:58:23.637Z,99.90
2023-02-22T07:00:51.780Z,99.90
2023-02-22T07:03:19.625Z,99.90
2023-02-22T07:05:47.567Z,99.90
2023-02-22T07:08:15.311Z,99.90
2023-02-22T07:10:43.051Z,99.90
2023-02-22T07:13:10.808Z,99.90
2023-02-22T07:15:39.866Z,99.90
2023-02-22T07:18:07.830Z,99.90
2023-02-22T07:20:36.174Z,99.90
2023-02-22T07:23:04.199Z,99.90
2023-02-22T07:25:32.261Z,99.90
2023-02-22T07:28:00.402Z,99.90
2023-02-22T07:30:31.059Z,99.90
2023-02-22T07:33:02.380Z,99.90
2023-02-22T07:35:32.361Z,99.90
2023-02-22T07:38:00.507Z,99.90
2023-02-22T07:40:29.033Z,99.90
2023-02-22T07:42:59.340Z,99.90
2023-02-22T07:45:28.831Z,99.90
2023-02-22T07:47:57.372Z,99.90
2023-02-22T07:50:30.017Z,99.90
2023-02-22T07:52:59.360Z,99.90
2023-02-22T07:55:28.869Z,99.90
2023-02-22T07:57:58.625Z,99.10
2023-02-22T08:00:28.538Z,97.90
2023-02-22T08:02:56.900Z,96.70
2023-02-22T08:05:28.754Z,96.00
2023-02-22T08:07:56.728Z,93.60
2023-02-22T08:10:26.075Z,92.10
2023-02-22T08:12:54.766Z,90.80
2023-02-22T08:15:25.447Z,88.10
2023-02-22T08:17:54.309Z,82.50
2023-02-22T08:20:22.920Z,82.20
2023-02-22T08:22:52.599Z,83.60
2023-02-22T08:25:22.084Z,83.00
2023-02-22T08:27:50.821Z,80.80
2023-02-22T08:30:21.013Z,78.50
2023-02-22T08:32:49.311Z,77.20
2023-02-22T08:35:19.334Z,77.50
2023-02-22T08:37:48.654Z,77.50
2023-02-22T08:40:19.484Z,77.90
2023-02-22T08:42:47.269Z,74.90
2023-02-22T08:45:15.325Z,71.90
2023-02-22T08:47:43.361Z,70.10
2023-02-22T08:50:16.467Z,68.90
2023-02-22T08:52:44.274Z,69.90
2023-02-22T08:55:12.137Z,68.50
2023-02-22T08:57:41.190Z,70.00
2023-02-22T09:00:11.036Z,69.70
2023-02-22T09:02:40.699Z,68.00
2023-02-22T09:05:11.092Z,66.90
2023-02-22T09:07:44.287Z,64.70
2023-02-22T09:10:17.353Z,64.60
2023-02-22T09:12:48.583Z,65.80
2023-02-22T09:15:18.497Z,66.00
2023-02-22T09:17:48.136Z,65.70
2023-02-22T09:20:21.470Z,66.60
2023-02-22T09:22:52.455Z,67.10
2023-02-22T09:25:23.142Z,65.80
2023-02-22T09:27:55.288Z,65.20
2023-02-22T09:30:32.697Z,65.10
2023-02-22T09:33:04.771Z,65.50
2023-02-22T09:35:36.724Z,65.40
2023-02-22T09:38:08.280Z,64.80
2023-02-22T09:40:45.387Z,64.80
2023-02-22T09:43:29.223Z,66.30
2023-02-22T09:46:13.906Z,66.50
2023-02-22T09:48:58.951Z,65.70
2023-02-22T09:51:36.174Z,66.70
2023-02-22T09:54:15.020Z,67.00
2023-02-22T09:56:43.717Z,65.90
2023-02-22T09:59:18.759Z,66.10
2023-02-22T10:01:51.214Z,67.80
2023-02-22T10:04:23.542Z,67.90
2023-02-22T10:07:06.805Z,68.50
2023-02-22T10:09:42.465Z,69.70
2023-02-22T10:12:14.951Z,69.40
2023-02-22T10:15:07.050Z,69.20
2023-02-22T10:17:40.246Z,69.80
2023-02-22T10:20:28.506Z,66.50
2023-02-22T10:23:12.145Z,65.90
2023-02-22T10:25:41.500Z,64.90
2023-02-22T10:28:14.431Z,64.20
2023-02-22T10:30:54.601Z,62.70
2023-02-22T10:33:24.127Z,62.40
2023-02-22T10:35:53.549Z,61.30
2023-02-22T10:38:23.439Z,60.60
2023-02-22T10:40:55.914Z,59.50
2023-02-22T10:43:25.635Z,60.10
2023-02-22T10:45:58.104Z,60.20
2023-02-22T10:48:29.845Z,59.30
2023-02-22T10:51:01.937Z,58.50
2023-02-22T10:53:31.119Z,58.30
2023-02-22T10:56:12.672Z,58.00
2023-02-22T10:58:46.474Z,57.10
2023-02-22T11:01:27.519Z,55.80
2023-02-22T11:04:00.506Z,55.50
2023-02-22T11:06:28.529Z,54.30
2023-02-22T11:09:11.307Z,54.50
2023-02-22T11:11:41.244Z,54.80
2023-02-22T11:14:10.680Z,54.40
2023-02-22T11:16:42.945Z,54.70
2023-02-22T11:19:20.434Z,55.60
2023-02-22T11:21:51.382Z,56.10
2023-02-22T11:24:20.970Z,56.20
2023-02-22T11:26:52.573Z,56.10
2023-02-22T11:29:23.153Z,56.30
2023-02-22T11:31:52.886Z,56.90
2023-02-22T11:34:32.043Z,57.10
2023-02-22T11:37:17.544Z,57.90
2023-02-22T11:39:45.539Z,58.60
2023-02-22T11:42:23.513Z,57.60
2023-02-22T11:45:10.329Z,56.40
2023-02-22T11:47:52.436Z,56.20
2023-02-22T11:50:28.867Z,55.20
2023-02-22T11:53:18.361Z,55.00
2023-02-22T11:55:55.878Z,55.40
2023-02-22T11:58:33.609Z,56.10
2023-02-22T12:01:11.798Z,55.20
2023-02-22T12:03:58.414Z,54.50
2023-02-22T12:06:41.655Z,54.30
2023-02-22T12:09:16.031Z,53.70
2023-02-22T12:11:57.116Z,53.00
2023-02-22T12:14:32.019Z,53.10
2023-02-22T12:17:19.069Z,54.30
2023-02-22T12:19:51.307Z,54.00
2023-02-22T12:22:23.239Z,54.30
2023-02-22T12:25:08.544Z,54.00
2023-02-22T12:27:42.521Z,53.90
2023-02-22T12:30:16.272Z,55.20
2023-02-22T12:32:47.517Z,55.30
2023-02-22T12:35:22.724Z,54.70
2023-02-22T12:37:58.978Z,54.80
2023-02-22T12:40:35.393Z,54.90
2023-02-22T12:43:09.539Z,55.30
2023-02-22T12:45:43.892Z,55.50
2023-02-22T12:48:27.067Z,55.30
2023-02-22T12:51:00.806Z,55.30
2023-02-22T12:53:34.504Z,55.80
2023-02-22T12:56:16.969Z,55.70
2023-02-22T12:58:50.636Z,55.60
2023-02-22T13:01:22.261Z,55.00
2023-02-22T13:03:50.095Z,54.70
2023-02-22T13:06:33.121Z,54.40
2023-02-22T13:09:18.984Z,54.70
2023-02-22T13:11:53.526Z,54.40
2023-02-22T13:14:39.306Z,54.80
2023-02-22T13:17:14.810Z,55.60
2023-02-22T13:19:49.672Z,56.10
2023-02-22T13:22:25.686Z,55.60
2023-02-22T13:25:06.697Z,55.30
2023-02-22T13:27:41.025Z,54.50
2023-02-22T13:30:20.057Z,53.80
2023-02-22T13:33:19.597Z,54.70
2023-02-22T13:36:15.058Z,55.70
2023-02-22T13:39:03.484Z,56.70
2023-02-22T13:41:52.869Z,57.30
2023-02-22T13:44:53.007Z,58.30
2023-02-22T13:47:52.232Z,58.30
2023-02-22T13:51:07.118Z,57.20
2023-02-22T13:53:45.119Z,57.70
2023-02-22T13:56:15.855Z,57.70
2023-02-22T13:58:53.073Z,57.40
2023-02-22T14:01:40.820Z,57.30
2023-02-22T14:04:37.000Z,56.80
2023-02-22T14:07:33.683Z,56.80
2023-02-22T14:10:01.754Z,56.70
2023-02-22T14:12:50.552Z,58.00
2023-02-22T14:15:29.504Z,57.80
2023-02-22T14:18:00.852Z,58.00
2023-02-22T14:20:32.234Z,58.50
2023-02-22T14:23:30.807Z,59.00
2023-02-22T14:26:11.263Z,58.70
2023-02-22T14:28:46.193Z,57.80
2023-02-22T14:31:29.709Z,57.40
2023-02-22T14:34:09.574Z,58.10
2023-02-22T14:36:45.564Z,58.70
2023-02-22T14:39:31.659Z,58.80
2023-02-22T14:42:03.574Z,59.70
2023-02-22T14:44:37.732Z,60.10
2023-02-22T14:47:08.383Z,60.90
2023-02-22T14:49:41.387Z,60.30
2023-02-22T14:52:19.576Z,60.90
2023-02-22T14:55:04.566Z,61.60
2023-02-22T14:57:42.805Z,60.40
2023-02-22T15:00:22.687Z,59.80
2023-02-22T15:02:57.091Z,60.00
2023-02-22T15:05:27.532Z,60.80
2023-02-22T15:07:57.889Z,60.10
2023-02-22T15:10:29.610Z,60.60
2023-02-22T15:13:10.474Z,60.00
2023-02-22T15:15:43.731Z,59.80
2023-02-22T15:18:29.926Z,59.90
2023-02-22T15:21:00.210Z,59.90
2023-02-22T15:23:33.319Z,59.60
2023-02-22T15:26:01.306Z,59.60
2023-02-22T15:28:31.806Z,59.60
2023-02-22T15:31:25.931Z,60.10
2023-02-22T15:33:55.327Z,60.70
2023-02-22T15:36:27.302Z,60.90
2023-02-22T15:38:56.714Z,61.90
2023-02-22T15:41:28.766Z,62.40
2023-02-22T15:44:17.560Z,62.70
2023-02-22T15:46:54.342Z,62.80
2023-02-22T15:49:24.342Z,62.30
2023-02-22T15:52:04.974Z,62.60
2023-02-22T15:54:40.455Z,63.30
2023-02-22T15:57:08.297Z,63.70
2023-02-22T15:59:44.606Z,63.90
2023-02-22T16:02:39.054Z,63.50
2023-02-22T16:05:10.396Z,64.10
2023-02-22T16:07:45.093Z,64.30
2023-02-22T16:10:23.737Z,64.50
2023-02-22T16:13:03.466Z,66.30
2023-02-22T16:15:33.583Z,66.10
2023-02-22T16:18:26.488Z,66.70
2023-02-22T16:21:07.260Z,67.20
2023-02-22T16:23:46.101Z,67.80
2023-02-22T16:26:26.538Z,67.80
2023-02-22T16:28:56.812Z,68.40
2023-02-22T16:31:26.498Z,68.40
2023-02-22T16:33:56.324Z,68.70
2023-02-22T16:36:36.761Z,69.00
2023-02-22T16:39:07.361Z,69.70
2023-02-22T16:41:35.416Z,70.10
2023-02-22T16:44:03.610Z,70.30
2023-02-22T16:46:31.399Z,70.80
2023-02-22T16:49:03.271Z,71.10
2023-02-22T16:51:39.838Z,71.70
2023-02-22T16:54:12.511Z,72.20
2023-02-22T16:56:41.322Z,72.70
2023-02-22T16:59:14.019Z,72.80
2023-02-22T17:01:41.998Z,73.40
2023-02-22T17:04:15.828Z,74.00
2023-02-22T17:06:43.640Z,74.00
2023-02-22T17:09:11.503Z,74.50
2023-02-22T17:11:39.692Z,74.30
2023-02-22T17:14:07.587Z,74.00
2023-02-22T17:16:35.476Z,73.90
2023-02-22T17:19:04.996Z,73.90
2023-02-22T17:21:34.281Z,73.50
2023-02-22T17:24:02.162Z,72.60
2023-02-22T17:26:30.100Z,72.40
2023-02-22T17:28:57.893Z,71.80
2023-02-22T17:31:30.034Z,72.00
2023-02-22T17:34:02.060Z,71.60
2023-02-22T17:36:29.965Z,72.50
2023-02-22T17:38:59.879Z,71.80
2023-02-22T17:41:27.662Z,72.40
2023-02-22T17:43:58.029Z,72.70
2023-02-22T17:46:26.729Z,72.40
2023-02-22T17:48:54.962Z,73.10
2023-02-22T17:51:24.433Z,73.10
2023-02-22T17:53:52.622Z,74.00
2023-02-22T17:56:22.035Z,73.30
2023-02-22T17:58:53.490Z,74.30
2023-02-22T18:01:25.018Z,75.00
2023-02-22T18:03:53.109Z,75.70
2023-02-22T18:06:25.218Z,75.00
2023-02-22T18:08:56.208Z,75.90
2023-02-22T18:11:27.301Z,76.60
2023-02-22T18:13:56.015Z,76.50
2023-02-22T18:16:25.416Z,77.50
2023-02-22T18:18:53.555Z,77.90
2023-02-22T18:21:21.620Z,78.20
2023-02-22T18:23:49.638Z,78.60
2023-02-22T18:26:19.533Z,79.00
2023-02-22T18:28:49.472Z,79.50
2023-02-22T18:31:19.046Z,80.20
2023-02-22T18:33:49.361Z,80.20
2023-02-22T18:36:22.464Z,81.90
2023-02-22T18:38:51.445Z,81.60
2023-02-22T18:41:25.127Z,81.40
2023-02-22T18:43:57.526Z,82.30
2023-02-22T18:46:26.242Z,82.90
2023-02-22T18:48:55.539Z,83.80
2023-02-22T18:51:24.766Z,83.50
2023-02-22T18:53:56.815Z,85.00
2023-02-22T18:56:29.877Z,85.00
2023-02-22T18:59:00.706Z,85.30
2023-02-22T19:01:29.965Z,85.70
2023-02-22T19:03:59.226Z,86.00
2023-02-22T19:06:26.961Z,86.90
2023-02-22T19:08:55.304Z,87.40
2023-02-22T19:11:25.558Z,87.60
2023-02-22T19:13:54.909Z,89.20
2023-02-22T19:16:25.723Z,89.20
2023-02-22T19:18:56.804Z,89.40
2023-02-22T19:21:25.513Z,90.20
2023-02-22T19:23:53.510Z,90.00
2023-02-22T19:26:23.792Z,90.00
2023-02-22T19:28:52.815Z,90.70
2023-02-22T19:31:23.039Z,90.80
2023-02-22T19:33:53.422Z,91.00
2023-02-22T19:36:23.645Z,91.20
2023-02-22T19:38:51.492Z,91.30
2023-02-22T19:41:21.669Z,91.70
2023-02-22T19:43:51.421Z,92.10
2023-02-22T19:46:21.162Z,92.20
2023-02-22T19:48:50.859Z,92.60
2023-02-22T19:51:24.449Z,92.60
2023-02-22T19:53:53.564Z,93.10
2023-02-22T19:56:26.905Z,93.10
2023-02-22T19:58:56.815Z,93.40
2023-02-22T20:01:26.552Z,93.80
2023-02-22T20:03:56.026Z,94.20
2023-02-22T20:06:28.037Z,94.00
2023-02-22T20:08:56.923Z,94.30
2023-02-22T20:11:25.768Z,94.60
2023-02-22T20:13:55.377Z,94.70
2023-02-22T20:16:23.748Z,94.50
2023-02-22T20:18:51.778Z,95.00
2023-02-22T20:21:22.735Z,95.20
2023-02-22T20:23:56.884Z,95.50
2023-02-22T20:26:25.780Z,95.90
2023-02-22T20:28:54.184Z,96.00
2023-02-22T20:31:22.584Z,96.40
2023-02-22T20:33:54.932Z,96.60
2023-02-22T20:36:24.712Z,96.90
2023-02-22T20:38:55.290Z,97.20
2023-02-22T20:41:26.800Z,97.50
2023-02-22T20:43:56.272Z,97.30
2023-02-22T20:46:25.131Z,97.90
2023-02-22T20:48:56.529Z,98.10
2023-02-22T20:51:24.731Z,98.60
2023-02-22T20:53:54.514Z,99.40
2023-02-22T20:56:25.213Z,99.30
2023-02-22T20:58:53.227Z,99.70
2023-02-22T21:01:22.427Z,99.90
2023-02-22T21:03:51.320Z,99.90
2023-02-22T21:06:22.826Z,99.90
2023-02-22T21:08:53.519Z,99.90
2023-02-22T21:11:25.062Z,99.90
2023-02-22T21:13:53.511Z,99.90
2023-02-22T21:16:24.391Z,99.90
2023-02-22T21:18:53.020Z,99.90
2023-02-22T21:21:21.578Z,99.90
2023-02-22T21:23:50.919Z,99.90
2023-02-22T21:26:20.758Z,99.90
2023-02-22T21:28:51.747Z,99.90
2023-02-22T21:31:21.569Z,99.90
2023-02-22T21:33:50.527Z,99.90
2023-02-22T21:36:19.040Z,99.90
2023-02-22T21:38:53.408Z,99.90
2023-02-22T21:41:23.512Z,99.90
2023-02-22T21:43:52.996Z,99.90
2023-02-22T21:46:21.384Z,99.90
2023-02-22T21:48:49.498Z,99.90
2023-02-22T21:51:19.937Z,99.90
2023-02-22T21:53:49.260Z,99.90
2023-02-22T21:56:20.689Z,99.90
2023-02-22T21:58:51.227Z,99.90
2023-02-22T22:01:20.537Z,99.90
2023-02-22T22:03:48.510Z,99.90
2023-02-22T22:06:16.319Z,99.90
2023-02-22T22:08:46.057Z,99.90
2023-02-22T22:11:17.743Z,99.90
2023-02-22T22:13:46.101Z,99.90
2023-02-22T22:16:16.292Z,99.90
2023-02-22T22:18:46.724Z,99.90
2023-02-22T22:21:17.897Z,99.90
2023-02-22T22:23:47.377Z,99.90
2023-02-22T22:26:16.952Z,99.90
2023-02-22T22:28:47.163Z,99.90
2023-02-22T22:31:16.444Z,99.90
2023-02-22T22:33:46.197Z,99.90
2023-02-22T22:36:16.333Z,99.90
2023-02-22T22:38:46.902Z,99.90
2023-02-22T22:41:16.645Z,99.90
2023-02-22T22:43:46.073Z,99.90
2023-02-22T22:46:16.094Z,99.90
2023-02-22T22:48:46.909Z,99.90
2023-02-22T22:51:18.100Z,99.90
2023-02-22T22:53:47.914Z,99.90
2023-02-22T22:56:17.524Z,99.90
2023-02-22T22:58:49.063Z,99.90
2023-02-22T23:01:19.618Z,99.90
2023-02-22T23:03:54.824Z,99.90
2023-02-22T23:06:27.249Z,99.90
2023-02-22T23:08:59.908Z,99.90
2023-02-22T23:11:29.477Z,99.90
2023-02-22T23:13:57.609Z,99.90
2023-02-22T23:16:25.883Z,99.90
2023-02-22T23:18:55.133Z,99.90
2023-02-22T23:21:24.289Z,99.90
2023-02-22T23:23:55.422Z,99.90
2023-02-22T23:26:26.449Z,99.90
2023-02-22T23:28:59.068Z,99.90
2023-02-22T23:31:28.587Z,99.90
2023-02-22T23:33:59.452Z,99.90
2023-02-22T23:36:28.224Z,99.90
2023-02-22T23:38:55.997Z,99.90
2023-02-22T23:41:25.164Z,99.90
2023-02-22T23:43:53.778Z,99.90
2023-02-22T23:46:21.678Z,99.90
2023-02-22T23:48:52.014Z,99.90
2023-02-22T23:51:25.529Z,99.90
2023-02-22T23:53:55.611Z,99.90
2023-02-22T23:56:26.403Z,99.90
2023-02-22T23:58:57.043Z,99.90
